Latest Weather Observations for Outer Harbor (Black Pole)

IDS60801

Issued at 4:35 pm CST Thursday 17 April 2014 (issued every 30 minutes, with the page automatically refreshed every 10 minutes)

About weather observations | Map of weather stations | Latest weather observations for SA | Other Formats
Station Details ID: 023052 Name: BLACK POLE Lat: -34.73 Lon: 138.47 Height: 8.0 m
Data from the previous 72 hours. | See also: Recent months for locations in South Australia
Date/Time
CST
Temp
°C
App
Temp
°C
Dew
Point
Rel
Hum
%
Delta-T
°C
Wind Press
QNH
hPa
Press
MSL
hPa
Rain
since 9 am
mm
Dir
 
Spd
km/h
Gust
km/h
Spd
kts
Gust
kts
17/04:30pm - - - - - SSW 2 4 1 2 - - -
17/04:00pm - - - - - S 2 2 1 1 - - -
17/03:30pm - - - - - S 4 4 2 2 - - -
17/03:00pm - - - - - S 2 4 1 2 - - -
17/02:30pm - - - - - SSE 4 4 2 2 - - -
17/02:00pm - - - - - N 4 4 2 2 - - -
17/01:30pm - - - - - NNW 2 4 1 2 - - -
17/01:00pm - - - - - WSW 9 11 5 6 - - -
17/12:30pm - - - - - WSW 11 13 6 7 - - -
17/12:00pm - - - - - W 6 9 3 5 - - -
17/11:30am - - - - - CALM 0 6 0 3 - - -
17/11:00am - - - - - CALM 0 2 0 1 - - -
17/10:30am - - - - - NNE 2 4 1 2 - - -
17/10:00am - - - - - N 11 13 6 7 - - -
17/09:30am - - - - - NNE 11 13 6 7 - - -
17/09:00am - - - - - NNE 15 19 8 10 - - -
17/08:30am - - - - - NNE 17 19 9 10 - - -
17/08:00am - - - - - NE 19 22 10 12 - - -
17/07:30am - - - - - NE 19 20 10 11 - - -
17/07:00am - - - - - NE 17 20 9 11 - - -
17/06:30am - - - - - NNE 17 20 9 11 - - -
17/06:00am - - - - - NNE 13 17 7 9 - - -
17/05:30am - - - - - NNE 15 17 8 9 - - -
17/05:00am - - - - - NNE 17 19 9 10 - - -
17/04:30am - - - - - NE 15 17 8 9 - - -
17/04:00am - - - - - NE 15 17 8 9 - - -
17/03:30am - - - - - NNE 13 17 7 9 - - -
17/03:00am - - - - - NE 15 17 8 9 - - -
17/02:30am - - - - - NE 17 19 9 10 - - -
17/02:00am - - - - - NE 13 17 7 9 - - -
17/01:30am - - - - - NE 11 13 6 7 - - -
17/01:00am - - - - - ENE 11 13 6 7 - - -
17/12:30am - - - - - SW 15 19 8 10 - - -
17/12:00am - - - - - SW 11 17 6 9 - - -
 
Date/Time
CST
Temp
°C
App
Temp
°C
Dew
Point
Rel
Hum
%
Delta-T
°C
Wind Press
QNH
hPa
Press
MSL
hPa
Rain
since 9 am
mm
Dir
 
Spd
km/h
Gust
km/h
Spd
kts
Gust
kts
16/11:30pm - - - - - NE 4 4 2 2 - - -
16/11:00pm - - - - - S 6 9 3 5 - - -
16/10:30pm - - - - - SSE 6 6 3 3 - - -
16/10:00pm - - - - - ESE 6 7 3 4 - - -
16/09:30pm - - - - - S 11 15 6 8 - - -
16/09:00pm - - - - - SSW 13 15 7 8 - - -
16/08:30pm - - - - - SSW 9 11 5 6 - - -
16/08:00pm - - - - - SSW 6 6 3 3 - - -
16/07:30pm - - - - - E 4 4 2 2 - - -
16/07:00pm - - - - - E 6 6 3 3 - - -
16/06:30pm - - - - - ENE 4 6 2 3 - - -
16/06:00pm - - - - - CALM 0 0 0 0 - - -
16/05:30pm - - - - - E 2 2 1 1 - - -
16/05:00pm - - - - - SSW 2 2 1 1 - - -
16/04:30pm - - - - - SW 2 4 1 2 - - -
16/04:00pm - - - - - S 2 2 1 1 - - -
16/03:30pm - - - - - SE 4 4 2 2 - - -
16/03:00pm - - - - - S 9 9 5 5 - - -
16/02:30pm - - - - - S 9 11 5 6 - - -
16/02:00pm - - - - - S 6 6 3 3 - - -
16/01:30pm - - - - - SSW 6 7 3 4 - - -
16/01:00pm - - - - - SSW 2 4 1 2 - - -
16/12:30pm - - - - - WSW 2 4 1 2 - - -
16/12:00pm - - - - - WNW 6 9 3 5 - - -
16/11:30am - - - - - N 6 7 3 4 - - -
16/11:00am - - - - - NW 6 7 3 4 - - -
16/10:30am - - - - - NNW 4 9 2 5 - - -
16/10:00am - - - - - NNE 4 6 2 3 - - -
16/09:30am - - - - - NE 13 17 7 9 - - -
16/09:00am - - - - - NNE 17 19 9 10 - - -
16/08:30am - - - - - NE 19 20 10 11 - - -
16/08:00am - - - - - NE 19 22 10 12 - - -
16/07:30am - - - - - NE 17 19 9 10 - - -
16/07:00am - - - - - NE 19 22 10 12 - - -
16/06:30am - - - - - NE 13 17 7 9 - - -
16/06:00am - - - - - NE 17 20 9 11 - - -
16/05:30am - - - - - NE 19 22 10 12 - - -
16/05:00am - - - - - NE 17 19 9 10 - - -
16/04:30am - - - - - NNE 15 17 8 9 - - -
16/04:00am - - - - - NNE 15 19 8 10 - - -
16/03:30am - - - - - NNE 11 15 6 8 - - -
16/03:00am - - - - - N 7 9 4 5 - - -
16/02:30am - - - - - NNE 4 4 2 2 - - -
16/02:00am - - - - - NNE 2 4 1 2 - - -
16/01:30am - - - - - NE 6 7 3 4 - - -
16/01:00am - - - - - ENE 9 11 5 6 - - -
16/12:30am - - - - - ENE 9 11 5 6 - - -
16/12:00am - - - - - E 13 19 7 10 - - -
 
Date/Time
CST
Temp
°C
App
Temp
°C
Dew
Point
Rel
Hum
%
Delta-T
°C
Wind Press
QNH
hPa
Press
MSL
hPa
Rain
since 9 am
mm
Dir
 
Spd
km/h
Gust
km/h
Spd
kts
Gust
kts
15/11:30pm - - - - - E 15 17 8 9 - - -
15/11:00pm - - - - - E 13 15 7 8 - - -
15/10:30pm - - - - - ESE 20 22 11 12 - - -
15/10:00pm - - - - - ESE 19 22 10 12 - - -
15/09:30pm - - - - - ESE 20 24 11 13 - - -
15/09:00pm - - - - - ESE 19 20 10 11 - - -
15/08:30pm - - - - - E 20 24 11 13 - - -
15/08:00pm - - - - - SE 4 6 2 3 - - -
15/07:30pm - - - - - S 7 9 4 5 - - -
15/07:00pm - - - - - SSW 13 17 7 9 - - -
15/06:30pm - - - - - SSW 22 26 12 14 - - -
15/06:00pm - - - - - SSW 26 32 14 17 - - -
15/05:30pm - - - - - SSW 26 30 14 16 - - -
15/05:00pm - - - - - SSW 24 28 13 15 - - -
15/04:30pm - - - - - SW 30 33 16 18 - - -
15/04:00pm - - - - - SW 24 30 13 16 - - -
15/03:30pm - - - - - SW 22 26 12 14 - - -
15/03:00pm - - - - - SSW 22 26 12 14 - - -
15/02:30pm - - - - - SW 20 24 11 13 - - -
15/02:00pm - - - - - WSW 19 20 10 11 - - -
15/01:30pm - - - - - WSW 19 22 10 12 - - -
15/01:00pm - - - - - SW 19 19 10 10 - - -
15/12:30pm - - - - - SW 19 20 10 11 - - -
15/12:00pm - - - - - SW 15 19 8 10 - - -
15/11:30am - - - - - WSW 11 15 6 8 - - -
15/11:00am - - - - - WSW 4 6 2 3 - - -
15/10:30am - - - - - S 4 6 2 3 - - -
15/10:00am - - - - - SSE 6 7 3 4 - - -
15/09:30am - - - - - SE 6 7 3 4 - - -
15/09:00am - - - - - ESE 7 11 4 6 - - -
15/08:30am - - - - - SE 9 11 5 6 - - -
15/08:00am - - - - - SE 9 13 5 7 - - -
15/07:30am - - - - - SE 7 11 4 6 - - -
15/07:00am - - - - - S 7 9 4 5 - - -
15/06:30am - - - - - SE 6 9 3 5 - - -
15/06:00am - - - - - E 7 11 4 6 - - -
15/05:30am - - - - - ESE 11 15 6 8 - - -
15/05:00am - - - - - SE 17 19 9 10 - - -
15/04:30am - - - - - SE 13 19 7 10 - - -
15/04:00am - - - - - SE 11 13 6 7 - - -
15/03:30am - - - - - S 15 19 8 10 - - -
15/03:00am - - - - - S 19 20 10 11 - - -
15/02:30am - - - - - S 19 24 10 13 - - -
15/02:00am - - - - - S 22 26 12 14 - - -
15/01:30am - - - - - S 20 22 11 12 - - -
15/01:00am - - - - - S 19 20 10 11 - - -
15/12:30am - - - - - S 20 22 11 12 - - -
15/12:00am - - - - - SSE 22 26 12 14 - - -
 
Date/Time
CST
Temp
°C
App
Temp
°C
Dew
Point
Rel
Hum
%
Delta-T
°C
Wind Press
QNH
hPa
Press
MSL
hPa
Rain
since 9 am
mm
Dir
 
Spd
km/h
Gust
km/h
Spd
kts
Gust
kts
14/11:30pm - - - - - S 28 32 15 17 - - -
14/11:00pm - - - - - S 30 33 16 18 - - -
14/10:30pm - - - - - S 30 33 16 18 - - -
14/10:00pm - - - - - S 28 32 15 17 - - -
14/09:30pm - - - - - S 24 30 13 16 - - -
14/09:00pm - - - - - S 26 32 14 17 - - -
14/08:30pm - - - - - S 26 30 14 16 - - -
14/08:00pm - - - - - S 30 35 16 19 - - -
14/07:30pm - - - - - SSE 24 32 13 17 - - -
14/07:00pm - - - - - SSE 28 35 15 19 - - -
14/06:30pm - - - - - SSE 26 32 14 17 - - -
14/06:00pm - - - - - SSE 26 32 14 17 - - -
14/05:30pm - - - - - SSE 28 32 15 17 - - -
14/05:00pm - - - - - SE 20 28 11 15 - - -

Other Formats:

Comma delimited format used in spreadsheet applications
http://www.bom.gov.au/fwo/IDS60801/IDS60801.95675.axf

JavaScript Object Notation format (JSON) in row-major order
http://www.bom.gov.au/fwo/IDS60801/IDS60801.95675.json